sensor_id;sensor_type;location;lat;lon;timestamp;pressure;altitude;pressure_sealevel;temperature;humidity
60319;BME280;46163;52.306;5.634;2022-11-04T00:01:12;99842.66;;;18.47;63.04
60319;BME280;46163;52.306;5.634;2022-11-04T00:03:37;99842.13;;;18.45;63.15
60319;BME280;46163;52.306;5.634;2022-11-04T00:06:03;99840.00;;;18.42;63.18
60319;BME280;46163;52.306;5.634;2022-11-04T00:08:29;99858.59;;;18.44;63.27
60319;BME280;46163;52.306;5.634;2022-11-04T00:10:55;99853.72;;;18.41;63.20
60319;BME280;46163;52.306;5.634;2022-11-04T00:13:40;99862.59;;;18.41;63.19
60319;BME280;46163;52.306;5.634;2022-11-04T00:16:06;99854.56;;;18.36;63.06
60319;BME280;46163;52.306;5.634;2022-11-04T00:18:53;99851.31;;;18.39;63.11
60319;BME280;46163;52.306;5.634;2022-11-04T00:21:19;99858.88;;;18.37;63.02
60319;BME280;46163;52.306;5.634;2022-11-04T00:24:04;99861.03;;;18.35;63.33
60319;BME280;46163;52.306;5.634;2022-11-04T00:26:48;99869.41;;;18.33;63.28
60319;BME280;46163;52.306;5.634;2022-11-04T00:29:32;99866.97;;;18.32;63.29
60319;BME280;46163;52.306;5.634;2022-11-04T00:31:57;99876.94;;;18.31;63.30
60319;BME280;46163;52.306;5.634;2022-11-04T00:34:41;99879.91;;;18.30;63.28
60319;BME280;46163;52.306;5.634;2022-11-04T00:37:07;99870.22;;;18.29;63.17
60319;BME280;46163;52.306;5.634;2022-11-04T00:39:32;99879.38;;;18.28;63.15
60319;BME280;46163;52.306;5.634;2022-11-04T00:41:58;99886.66;;;18.27;63.24
60319;BME280;46163;52.306;5.634;2022-11-04T00:44:24;99881.25;;;18.27;63.16
60319;BME280;46163;52.306;5.634;2022-11-04T00:46:49;99889.63;;;18.26;63.13
60319;BME280;46163;52.306;5.634;2022-11-04T00:49:15;99898.50;;;18.26;63.28
60319;BME280;46163;52.306;5.634;2022-11-04T00:51:41;99896.09;;;18.25;63.30
60319;BME280;46163;52.306;5.634;2022-11-04T00:54:06;99904.69;;;18.22;63.29
60319;BME280;46163;52.306;5.634;2022-11-04T00:56:32;99900.41;;;18.21;63.36
60319;BME280;46163;52.306;5.634;2022-11-04T00:58:58;99904.97;;;18.20;63.37
60319;BME280;46163;52.306;5.634;2022-11-04T01:01:24;99913.34;;;18.19;63.27
60319;BME280;46163;52.306;5.634;2022-11-04T01:03:51;99914.41;;;18.18;63.33
60319;BME280;46163;52.306;5.634;2022-11-04T01:06:19;99914.69;;;18.16;63.44
60319;BME280;46163;52.306;5.634;2022-11-04T01:08:45;99922.50;;;18.13;63.39
60319;BME280;46163;52.306;5.634;2022-11-04T01:11:14;99926.78;;;18.14;63.21
60319;BME280;46163;52.306;5.634;2022-11-04T01:13:41;99932.19;;;18.14;63.50
60319;BME280;46163;52.306;5.634;2022-11-04T01:16:09;99935.97;;;18.13;63.34
60319;BME280;46163;52.306;5.634;2022-11-04T01:18:35;99937.84;;;18.12;63.40
60319;BME280;46163;52.306;5.634;2022-11-04T01:21:05;99941.63;;;18.11;63.40
60319;BME280;46163;52.306;5.634;2022-11-04T01:23:33;99937.31;;;18.10;63.34
60319;BME280;46163;52.306;5.634;2022-11-04T01:25:58;99951.59;;;18.11;63.16
60319;BME280;46163;52.306;5.634;2022-11-04T01:28:24;99942.41;;;18.06;63.31
60319;BME280;46163;52.306;5.634;2022-11-04T01:30:50;99943.25;;;18.07;63.41
60319;BME280;46163;52.306;5.634;2022-11-04T01:33:16;99947.81;;;18.06;63.18
60319;BME280;46163;52.306;5.634;2022-11-04T01:35:42;99952.38;;;18.06;63.29
60319;BME280;46163;52.306;5.634;2022-11-04T01:38:07;99953.75;;;18.03;63.48
60319;BME280;46163;52.306;5.634;2022-11-04T01:40:37;99975.28;;;18.03;63.52
60319;BME280;46163;52.306;5.634;2022-11-04T01:43:11;99977.44;;;18.01;63.47
60319;BME280;46163;52.306;5.634;2022-11-04T01:45:36;99982.81;;;18.01;63.46
60319;BME280;46163;52.306;5.634;2022-11-04T01:48:04;99993.59;;;18.01;63.34
60319;BME280;46163;52.306;5.634;2022-11-04T01:50:35;99988.50;;;18.00;63.21
60319;BME280;46163;52.306;5.634;2022-11-04T01:53:16;99994.16;;;17.98;63.41
60319;BME280;46163;52.306;5.634;2022-11-04T01:55:48;100000.59;;;17.97;63.31
60319;BME280;46163;52.306;5.634;2022-11-04T01:58:17;100001.38;;;17.98;63.42
60319;BME280;46163;52.306;5.634;2022-11-04T02:00:45;100005.16;;;17.97;63.33
60319;BME280;46163;52.306;5.634;2022-11-04T02:03:19;100002.75;;;17.95;63.27
60319;BME280;46163;52.306;5.634;2022-11-04T02:05:46;100017.00;;;17.96;63.37
60319;BME280;46163;52.306;5.634;2022-11-04T02:08:13;100014.06;;;17.92;63.13
60319;BME280;46163;52.306;5.634;2022-11-04T02:10:41;100016.75;;;17.92;63.34
60319;BME280;46163;52.306;5.634;2022-11-04T02:13:08;100021.06;;;17.93;63.35
60319;BME280;46163;52.306;5.634;2022-11-04T02:16:13;100020.53;;;17.91;63.38
60319;BME280;46163;52.306;5.634;2022-11-04T02:19:19;100011.88;;;17.89;63.39
60319;BME280;46163;52.306;5.634;2022-11-04T02:22:11;100022.66;;;17.89;63.35
60319;BME280;46163;52.306;5.634;2022-11-04T02:30:06;100036.66;;;17.86;63.51
60319;BME280;46163;52.306;5.634;2022-11-04T02:40:43;100046.06;;;17.73;63.40
60319;BME280;46163;52.306;5.634;2022-11-04T02:48:53;100050.91;;;17.76;63.72
60319;BME280;46163;52.306;5.634;2022-11-04T02:51:32;100042.81;;;17.71;63.64
60319;BME280;46163;52.306;5.634;2022-11-04T02:54:08;100067.88;;;17.77;63.53
60319;BME280;46163;52.306;5.634;2022-11-04T02:56:39;100066.25;;;17.76;63.67
60319;BME280;46163;52.306;5.634;2022-11-04T02:59:12;100075.41;;;17.75;63.61
60319;BME280;46163;52.306;5.634;2022-11-04T03:01:41;100072.41;;;17.71;63.56
60319;BME280;46163;52.306;5.634;2022-11-04T03:04:14;100076.75;;;17.72;63.42
60319;BME280;46163;52.306;5.634;2022-11-04T03:06:43;100085.63;;;17.73;63.49
60319;BME280;46163;52.306;5.634;2022-11-04T03:09:13;100086.69;;;17.72;63.36
60319;BME280;46163;52.306;5.634;2022-11-04T03:11:42;100097.44;;;17.72;63.50
60319;BME280;46163;52.306;5.634;2022-11-04T03:14:21;100109.28;;;17.71;63.66
60319;BME280;46163;52.306;5.634;2022-11-04T03:16:51;100099.59;;;17.70;63.57
60319;BME280;46163;52.306;5.634;2022-11-04T03:19:40;100098.75;;;17.69;63.45
60319;BME280;46163;52.306;5.634;2022-11-04T03:22:38;100101.47;;;17.69;63.64
60319;BME280;46163;52.306;5.634;2022-11-04T03:24:57;100103.34;;;17.64;63.62
60319;BME280;46163;52.306;5.634;2022-11-04T03:28:11;100120.03;;;17.66;63.44
60319;BME280;46163;52.306;5.634;2022-11-04T03:30:43;100122.72;;;17.66;63.59
60319;BME280;46163;52.306;5.634;2022-11-04T03:35:36;100127.56;;;17.64;63.43
60319;BME280;46163;52.306;5.634;2022-11-04T03:38:01;100131.31;;;17.63;63.54
60319;BME280;46163;52.306;5.634;2022-11-04T03:40:27;100137.75;;;17.62;63.71
60319;BME280;46163;52.306;5.634;2022-11-04T03:42:56;100132.38;;;17.57;63.55
60319;BME280;46163;52.306;5.634;2022-11-04T03:45:24;100139.91;;;17.60;63.44
60319;BME280;46163;52.306;5.634;2022-11-04T03:47:50;100147.97;;;17.60;63.58
60319;BME280;46163;52.306;5.634;2022-11-04T03:50:43;100152.56;;;17.59;63.46
60319;BME280;46163;52.306;5.634;2022-11-04T03:53:10;100148.53;;;17.57;63.54
60319;BME280;46163;52.306;5.634;2022-11-04T03:56:03;100150.41;;;17.56;63.64
60319;BME280;46163;52.306;5.634;2022-11-04T04:01:38;100156.03;;;17.55;63.60
60319;BME280;46163;52.306;5.634;2022-11-04T04:04:28;100159.78;;;17.53;63.61
60319;BME280;46163;52.306;5.634;2022-11-04T04:07:04;100163.56;;;17.52;63.38
60319;BME280;46163;52.306;5.634;2022-11-04T04:12:32;100150.03;;;17.37;63.66
60319;BME280;46163;52.306;5.634;2022-11-04T04:15:17;100166.78;;;17.49;63.64
60319;BME280;46163;52.306;5.634;2022-11-04T04:17:51;100161.94;;;17.46;63.51
60319;BME280;46163;52.306;5.634;2022-11-04T04:20:22;100164.34;;;17.48;63.74
60319;BME280;46163;52.306;5.634;2022-11-04T04:23:07;100161.94;;;17.46;63.54
60319;BME280;46163;52.306;5.634;2022-11-04T04:25:55;100170.22;;;17.45;63.59
60319;BME280;46163;52.306;5.634;2022-11-04T04:28:41;100175.88;;;17.43;63.54
60319;BME280;46163;52.306;5.634;2022-11-04T04:31:08;100180.47;;;17.43;63.64
60319;BME280;46163;52.306;5.634;2022-11-04T04:33:36;100192.28;;;17.42;63.65
60319;BME280;46163;52.306;5.634;2022-11-04T04:36:04;100188.78;;;17.41;63.70
60319;BME280;46163;52.306;5.634;2022-11-04T04:38:32;100189.31;;;17.38;63.71
60319;BME280;46163;52.306;5.634;2022-11-04T04:41:31;100194.72;;;17.38;63.73
60319;BME280;46163;52.306;5.634;2022-11-04T04:44:26;100199.50;;;17.36;63.57
60319;BME280;46163;52.306;5.634;2022-11-04T04:47:14;100198.97;;;17.34;63.87
60319;BME280;46163;52.306;5.634;2022-11-04T04:49:52;100204.34;;;17.34;63.78
60319;BME280;46163;52.306;5.634;2022-11-04T04:52:18;100205.41;;;17.33;63.82
60319;BME280;46163;52.306;5.634;2022-11-04T04:54:44;100204.06;;;17.31;63.79
60319;BME280;46163;52.306;5.634;2022-11-04T04:57:10;100206.78;;;17.36;63.71
60319;BME280;46163;52.306;5.634;2022-11-04T04:59:35;100208.16;;;17.38;63.62
60319;BME280;46163;52.306;5.634;2022-11-04T05:02:01;100214.06;;;17.40;63.58
60319;BME280;46163;52.306;5.634;2022-11-04T05:04:28;100210.31;;;17.41;63.65
60319;BME280;46163;52.306;5.634;2022-11-04T05:06:54;100211.41;;;17.45;63.58
60319;BME280;46163;52.306;5.634;2022-11-04T05:09:20;100214.09;;;17.45;63.50
60319;BME280;46163;52.306;5.634;2022-11-04T05:11:46;100215.75;;;17.51;63.70
60319;BME280;46163;52.306;5.634;2022-11-04T05:14:12;100216.03;;;17.55;63.25
60319;BME280;46163;52.306;5.634;2022-11-04T05:16:37;100218.47;;;17.62;63.13
60319;BME280;46163;52.306;5.634;2022-11-04T05:19:03;100221.47;;;17.65;63.11
60319;BME280;46163;52.306;5.634;2022-11-04T05:21:28;100227.13;;;17.69;63.16
60319;BME280;46163;52.306;5.634;2022-11-04T05:23:54;100223.69;;;17.73;63.18
60319;BME280;46163;52.306;5.634;2022-11-04T05:26:20;100235.81;;;17.76;62.79
60319;BME280;46163;52.306;5.634;2022-11-04T05:28:45;100228.00;;;17.79;63.07
60319;BME280;46163;52.306;5.634;2022-11-04T05:31:11;100237.47;;;17.82;62.81
60319;BME280;46163;52.306;5.634;2022-11-04T05:33:37;100240.16;;;17.87;62.71
60319;BME280;46163;52.306;5.634;2022-11-04T05:36:10;100242.88;;;17.92;62.61
60319;BME280;46163;52.306;5.634;2022-11-04T05:38:37;100242.06;;;17.97;62.35
60319;BME280;46163;52.306;5.634;2022-11-04T05:41:04;100241.28;;;18.01;62.42
60319;BME280;46163;52.306;5.634;2022-11-04T05:43:31;100241.56;;;18.05;62.23
60319;BME280;46163;52.306;5.634;2022-11-04T05:46:00;100245.09;;;18.11;62.08
60319;BME280;46163;52.306;5.634;2022-11-04T05:48:26;100239.16;;;18.14;62.17
60319;BME280;46163;52.306;5.634;2022-11-04T05:50:52;100252.66;;;18.19;61.91
60319;BME280;46163;52.306;5.634;2022-11-04T05:53:18;100255.34;;;18.24;61.81
60319;BME280;46163;52.306;5.634;2022-11-04T05:55:44;100255.66;;;18.27;61.69
60319;BME280;46163;52.306;5.634;2022-11-04T05:58:12;100258.88;;;18.29;61.60
60319;BME280;46163;52.306;5.634;2022-11-04T06:00:37;100268.31;;;18.32;61.51
60319;BME280;46163;52.306;5.634;2022-11-04T06:03:03;100262.09;;;18.31;61.30
60319;BME280;46163;52.306;5.634;2022-11-04T06:05:29;100269.41;;;18.36;61.10
60319;BME280;46163;52.306;5.634;2022-11-04T06:07:55;100271.81;;;18.38;61.13
60319;BME280;46163;52.306;5.634;2022-11-04T06:10:21;100268.31;;;18.37;61.16
60319;BME280;46163;52.306;5.634;2022-11-04T06:12:46;100278.56;;;18.40;61.05
60319;BME280;46163;52.306;5.634;2022-11-04T06:15:12;100282.34;;;18.39;60.80
60319;BME280;46163;52.306;5.634;2022-11-04T06:17:37;100292.31;;;18.39;60.96
60319;BME280;46163;52.306;5.634;2022-11-04T06:20:04;100288.81;;;18.38;61.05
60319;BME280;46163;52.306;5.634;2022-11-04T06:22:30;100288.25;;;18.41;61.12
60319;BME280;46163;52.306;5.634;2022-11-04T06:24:58;100281.56;;;18.44;61.08
60319;BME280;46163;52.306;5.634;2022-11-04T06:27:24;100287.75;;;18.44;60.98
60319;BME280;46163;52.306;5.634;2022-11-04T06:29:50;100288.81;;;18.43;61.02
60319;BME280;46163;52.306;5.634;2022-11-04T06:32:17;100288.56;;;18.45;61.21
60319;BME280;46163;52.306;5.634;2022-11-04T06:34:43;100294.22;;;18.48;61.10
60319;BME280;46163;52.306;5.634;2022-11-04T06:37:09;100300.41;;;18.49;61.35
60319;BME280;46163;52.306;5.634;2022-11-04T06:39:35;100300.41;;;18.49;61.36
60319;BME280;46163;52.306;5.634;2022-11-04T06:42:02;100296.63;;;18.50;61.23
60319;BME280;46163;52.306;5.634;2022-11-04T06:44:27;100298.28;;;18.51;61.17
60319;BME280;46163;52.306;5.634;2022-11-04T06:46:53;100284.81;;;18.51;61.32
60319;BME280;46163;52.306;5.634;2022-11-04T06:49:20;100287.22;;;18.52;61.03
60319;BME280;46163;52.306;5.634;2022-11-04T06:51:47;100291.00;;;18.51;61.19
60319;BME280;46163;52.306;5.634;2022-11-04T06:54:16;100295.84;;;18.54;61.06
60319;BME280;46163;52.306;5.634;2022-11-04T06:56:42;100303.13;;;18.54;61.17
60319;BME280;46163;52.306;5.634;2022-11-04T06:59:14;100297.19;;;18.57;61.06
60319;BME280;46163;52.306;5.634;2022-11-04T07:01:40;100313.91;;;18.59;61.04
60319;BME280;46163;52.306;5.634;2022-11-04T07:04:08;100311.47;;;18.57;61.05
60319;BME280;46163;52.306;5.634;2022-11-04T07:06:33;100316.59;;;18.59;61.03
60319;BME280;46163;52.306;5.634;2022-11-04T07:09:00;100325.25;;;18.61;60.96
60319;BME280;46163;52.306;5.634;2022-11-04T07:11:29;100322.28;;;18.62;61.02
60319;BME280;46163;52.306;5.634;2022-11-04T07:13:55;100331.97;;;18.63;60.83
60319;BME280;46163;52.306;5.634;2022-11-04T07:16:20;100338.19;;;18.64;60.82
60319;BME280;46163;52.306;5.634;2022-11-04T07:18:46;100335.47;;;18.64;60.73
60319;BME280;46163;52.306;5.634;2022-11-04T07:21:13;100345.44;;;18.63;60.83
60319;BME280;46163;52.306;5.634;2022-11-04T07:23:39;100349.22;;;18.62;60.56
60319;BME280;46163;52.306;5.634;2022-11-04T07:26:06;100347.63;;;18.61;60.79
60319;BME280;46163;52.306;5.634;2022-11-04T07:28:32;100360.56;;;18.59;60.75
60319;BME280;46163;52.306;5.634;2022-11-04T07:31:00;100350.81;;;18.58;60.93
60319;BME280;46163;52.306;5.634;2022-11-04T07:33:26;100359.19;;;18.57;60.80
60319;BME280;46163;52.306;5.634;2022-11-04T07:35:53;100352.16;;;18.56;60.78
60319;BME280;46163;52.306;5.634;2022-11-04T07:38:20;100350.81;;;18.53;60.91
60319;BME280;46163;52.306;5.634;2022-11-04T07:40:47;100355.41;;;18.53;60.90
60319;BME280;46163;52.306;5.634;2022-11-04T07:43:31;100359.19;;;18.52;60.90
60319;BME280;46163;52.306;5.634;2022-11-04T07:46:01;100354.59;;;18.52;60.84
60319;BME280;46163;52.306;5.634;2022-11-04T07:48:28;100365.38;;;18.52;60.90
60319;BME280;46163;52.306;5.634;2022-11-04T07:50:55;100369.16;;;18.51;60.93
60319;BME280;46163;52.306;5.634;2022-11-04T07:53:20;100374.53;;;18.51;60.62
60319;BME280;46163;52.306;5.634;2022-11-04T07:55:46;100375.34;;;18.52;60.56
60319;BME280;46163;52.306;5.634;2022-11-04T07:58:15;100389.06;;;18.50;60.66
60319;BME280;46163;52.306;5.634;2022-11-04T08:00:40;100399.88;;;18.55;60.47
60319;BME280;46163;52.306;5.634;2022-11-04T08:03:06;100397.16;;;18.55;60.58
60319;BME280;46163;52.306;5.634;2022-11-04T08:05:31;100396.09;;;18.56;60.58
60319;BME280;46163;52.306;5.634;2022-11-04T08:07:56;100401.22;;;18.58;60.38
60319;BME280;46163;52.306;5.634;2022-11-04T08:10:22;100409.06;;;18.59;60.49
60319;BME280;46163;52.306;5.634;2022-11-04T08:12:47;100410.69;;;18.60;60.48
60319;BME280;46163;52.306;5.634;2022-11-04T08:15:12;100416.88;;;18.61;60.53
60319;BME280;46163;52.306;5.634;2022-11-04T08:17:38;100416.88;;;18.61;60.37
60319;BME280;46163;52.306;5.634;2022-11-04T08:20:04;100418.22;;;18.63;60.37
60319;BME280;46163;52.306;5.634;2022-11-04T08:22:30;100420.69;;;18.65;60.52
60319;BME280;46163;52.306;5.634;2022-11-04T08:24:55;100426.06;;;18.65;60.06
60319;BME280;46163;52.306;5.634;2022-11-04T08:27:33;100430.38;;;18.66;60.35
60319;BME280;46163;52.306;5.634;2022-11-04T08:29:59;100439.03;;;18.68;60.29
60319;BME280;46163;52.306;5.634;2022-11-04T08:32:25;100446.84;;;18.70;60.12
60319;BME280;46163;52.306;5.634;2022-11-04T08:34:50;100446.59;;;18.71;60.11
60319;BME280;46163;52.306;5.634;2022-11-04T08:37:21;100450.91;;;18.72;59.98
60319;BME280;46163;52.306;5.634;2022-11-04T08:39:56;100447.94;;;18.74;60.13
60319;BME280;46163;52.306;5.634;2022-11-04T08:42:21;100451.16;;;18.76;60.09
60319;BME280;46163;52.306;5.634;2022-11-04T08:44:50;100450.38;;;18.75;59.67
60319;BME280;46163;52.306;5.634;2022-11-04T08:47:16;100453.63;;;18.77;59.89
60319;BME280;46163;52.306;5.634;2022-11-04T08:49:48;100463.06;;;18.80;59.91
60319;BME280;46163;52.306;5.634;2022-11-04T08:52:13;100455.25;;;18.78;59.78
60319;BME280;46163;52.306;5.634;2022-11-04T08:54:39;100466.31;;;18.82;59.94
60319;BME280;46163;52.306;5.634;2022-11-04T08:57:04;100462.53;;;18.83;59.87
60319;BME280;46163;52.306;5.634;2022-11-04T08:59:30;100467.91;;;18.83;59.60
60319;BME280;46163;52.306;5.634;2022-11-04T09:02:05;100473.84;;;18.85;59.80
60319;BME280;46163;52.306;5.634;2022-11-04T09:04:31;100475.50;;;18.86;59.73
60319;BME280;46163;52.306;5.634;2022-11-04T09:06:56;100471.16;;;18.85;59.64
60319;BME280;46163;52.306;5.634;2022-11-04T09:09:22;100473.84;;;18.85;59.61
60319;BME280;46163;52.306;5.634;2022-11-04T09:11:47;100466.59;;;18.85;59.61
60319;BME280;46163;52.306;5.634;2022-11-04T09:14:13;100471.16;;;18.85;59.64
60319;BME280;46163;52.306;5.634;2022-11-04T09:16:40;100472.81;;;18.86;59.61
60319;BME280;46163;52.306;5.634;2022-11-04T09:19:06;100470.91;;;18.86;59.85
60319;BME280;46163;52.306;5.634;2022-11-04T09:21:32;100472.81;;;18.86;59.80
60319;BME280;46163;52.306;5.634;2022-11-04T09:24:10;100478.47;;;18.89;59.69
60319;BME280;46163;52.306;5.634;2022-11-04T09:26:36;100480.91;;;18.91;59.76
60319;BME280;46163;52.306;5.634;2022-11-04T09:29:02;100488.72;;;18.92;59.64
60319;BME280;46163;52.306;5.634;2022-11-04T09:31:29;100495.47;;;18.95;59.61
60319;BME280;46163;52.306;5.634;2022-11-04T09:33:56;100499.81;;;18.96;59.76
60319;BME280;46163;52.306;5.634;2022-11-04T09:36:22;100493.06;;;18.99;59.66
60319;BME280;46163;52.306;5.634;2022-11-04T09:38:48;100500.06;;;19.00;59.63
60319;BME280;46163;52.306;5.634;2022-11-04T09:41:36;100504.94;;;19.03;59.55
60319;BME280;46163;52.306;5.634;2022-11-04T09:44:47;100507.38;;;19.04;59.56
60319;BME280;46163;52.306;5.634;2022-11-04T09:47:14;100496.84;;;18.98;59.46
60319;BME280;46163;52.306;5.634;2022-11-04T09:49:43;100507.38;;;19.04;59.42
60319;BME280;46163;52.306;5.634;2022-11-04T09:52:17;100513.03;;;19.08;59.40
60319;BME280;46163;52.306;5.634;2022-11-04T09:55:06;100519.25;;;19.08;59.42
60319;BME280;46163;52.306;5.634;2022-11-04T09:57:34;100514.66;;;19.09;59.23
60319;BME280;46163;52.306;5.634;2022-11-04T10:00:14;100529.78;;;19.10;59.41
60319;BME280;46163;52.306;5.634;2022-11-04T10:02:49;100528.97;;;19.09;59.25
60319;BME280;46163;52.306;5.634;2022-11-04T10:11:10;100542.44;;;19.09;59.12
60319;BME280;46163;52.306;5.634;2022-11-04T10:22:32;100544.59;;;19.07;58.96
60319;BME280;46163;52.306;5.634;2022-11-04T10:27:42;100544.59;;;19.07;59.01
60319;BME280;46163;52.306;5.634;2022-11-04T10:30:15;100552.97;;;19.06;59.01
60319;BME280;46163;52.306;5.634;2022-11-04T10:37:54;100562.63;;;19.02;58.96
60319;BME280;46163;52.306;5.634;2022-11-04T10:40:35;100578.59;;;19.08;58.94
60319;BME280;46163;52.306;5.634;2022-11-04T10:43:07;100574.53;;;19.06;58.90
60319;BME280;46163;52.306;5.634;2022-11-04T10:45:51;100574.53;;;19.06;58.97
60319;BME280;46163;52.306;5.634;2022-11-04T10:49:03;100584.78;;;19.04;59.04
60319;BME280;46163;52.306;5.634;2022-11-04T10:51:32;100585.88;;;19.03;58.99
60319;BME280;46163;52.306;5.634;2022-11-04T10:53:59;100595.81;;;19.02;59.03
60319;BME280;46163;52.306;5.634;2022-11-04T10:56:37;100605.78;;;19.02;59.14
60319;BME280;46163;52.306;5.634;2022-11-04T11:07:40;100624.09;;;18.95;59.21
60319;BME280;46163;52.306;5.634;2022-11-04T11:10:16;100619.53;;;18.95;59.22
60319;BME280;46163;52.306;5.634;2022-11-04T11:15:46;100622.22;;;18.95;59.31
60319;BME280;46163;52.306;5.634;2022-11-04T11:18:16;100621.41;;;18.95;59.32
60319;BME280;46163;52.306;5.634;2022-11-04T11:21:06;100618.94;;;18.93;58.96
60319;BME280;46163;52.306;5.634;2022-11-04T11:23:43;100613.56;;;18.93;58.70
60319;BME280;46163;52.306;5.634;2022-11-04T11:26:15;100598.44;;;18.87;58.33
60319;BME280;46163;52.306;5.634;2022-11-04T11:28:48;100601.63;;;18.79;58.56
60319;BME280;46163;52.306;5.634;2022-11-04T11:31:15;100610.53;;;18.84;58.58
60319;BME280;46163;52.306;5.634;2022-11-04T11:33:58;100627.31;;;18.86;58.89
60319;BME280;46163;52.306;5.634;2022-11-04T11:36:33;100629.41;;;18.84;58.50
60319;BME280;46163;52.306;5.634;2022-11-04T11:39:05;100631.03;;;18.80;58.66
60319;BME280;46163;52.306;5.634;2022-11-04T11:42:03;100633.47;;;18.82;58.68
60319;BME280;46163;52.306;5.634;2022-11-04T11:44:34;100636.69;;;18.84;58.47
60319;BME280;46163;52.306;5.634;2022-11-04T11:50:16;100638.31;;;18.85;58.43
60319;BME280;46163;52.306;5.634;2022-11-04T11:52:44;100641.59;;;18.87;58.15
60319;BME280;46163;52.306;5.634;2022-11-04T11:55:26;100634.31;;;18.87;58.30
60319;BME280;46163;52.306;5.634;2022-11-04T11:58:04;100634.84;;;18.89;58.35
60319;BME280;46163;52.306;5.634;2022-11-04T12:00:37;100627.56;;;18.90;58.23
60319;BME280;46163;52.306;5.634;2022-11-04T12:03:20;100631.88;;;18.91;57.83
60319;BME280;46163;52.306;5.634;2022-11-04T12:11:40;100651.31;;;18.93;58.05
60319;BME280;46163;52.306;5.634;2022-11-04T12:14:41;100657.50;;;18.93;57.93
60319;BME280;46163;52.306;5.634;2022-11-04T12:28:50;100656.38;;;18.84;57.84
60319;BME280;46163;52.306;5.634;2022-11-04T12:37:04;100672.56;;;18.84;58.28
60319;BME280;46163;52.306;5.634;2022-11-04T12:42:35;100679.88;;;18.89;58.75
60319;BME280;46163;52.306;5.634;2022-11-04T12:45:20;100680.44;;;18.91;58.75
60319;BME280;46163;52.306;5.634;2022-11-04T12:47:49;100679.63;;;18.90;58.72
60319;BME280;46163;52.306;5.634;2022-11-04T12:56:39;100686.13;;;18.95;58.79
60319;BME280;46163;52.306;5.634;2022-11-04T13:02:31;100689.88;;;18.93;58.95
60319;BME280;46163;52.306;5.634;2022-11-04T13:07:46;100696.59;;;18.91;59.10
60319;BME280;46163;52.306;5.634;2022-11-04T13:10:31;100702.00;;;18.91;59.23
60319;BME280;46163;52.306;5.634;2022-11-04T13:13:02;100708.72;;;18.88;59.11
60319;BME280;46163;52.306;5.634;2022-11-04T13:15:38;100703.03;;;18.85;59.08
60319;BME280;46163;52.306;5.634;2022-11-04T13:18:17;100714.88;;;18.84;59.20
60319;BME280;46163;52.306;5.634;2022-11-04T13:21:07;100709.50;;;18.84;59.35
60319;BME280;46163;52.306;5.634;2022-11-04T13:26:05;100709.16;;;18.75;59.23
60319;BME280;46163;52.306;5.634;2022-11-04T13:28:35;100727.28;;;18.80;59.40
60319;BME280;46163;52.306;5.634;2022-11-04T13:33:55;100727.78;;;18.77;59.52
60319;BME280;46163;52.306;5.634;2022-11-04T13:39:07;100727.78;;;18.77;59.61
60319;BME280;46163;52.306;5.634;2022-11-04T13:44:42;100750.66;;;18.74;59.69
60319;BME280;46163;52.306;5.634;2022-11-04T13:47:18;100740.16;;;18.73;59.48
60319;BME280;46163;52.306;5.634;2022-11-04T13:49:54;100745.53;;;18.73;59.53
60319;BME280;46163;52.306;5.634;2022-11-04T13:52:21;100752.00;;;18.72;59.54
60319;BME280;46163;52.306;5.634;2022-11-04T13:54:57;100764.66;;;18.71;59.70
60319;BME280;46163;52.306;5.634;2022-11-04T13:57:48;100765.19;;;18.68;59.95
60319;BME280;46163;52.306;5.634;2022-11-04T14:02:48;100767.03;;;18.68;60.26
60319;BME280;46163;52.306;5.634;2022-11-04T14:18:36;100779.16;;;18.65;60.30
60319;BME280;46163;52.306;5.634;2022-11-04T14:21:19;100788.63;;;18.68;60.47
60319;BME280;46163;52.306;5.634;2022-11-04T14:26:20;100797.28;;;18.70;60.41
60319;BME280;46163;52.306;5.634;2022-11-04T14:28:58;100803.47;;;18.70;60.48
60319;BME280;46163;52.306;5.634;2022-11-04T14:31:47;100802.16;;;18.73;60.41
60319;BME280;46163;52.306;5.634;2022-11-04T14:34:42;100807.28;;;18.74;60.22
60319;BME280;46163;52.306;5.634;2022-11-04T14:37:21;100801.63;;;18.76;60.16
60319;BME280;46163;52.306;5.634;2022-11-04T14:39:56;100814.06;;;18.77;60.32
60319;BME280;46163;52.306;5.634;2022-11-04T14:43:01;100822.72;;;18.79;60.05
60319;BME280;46163;52.306;5.634;2022-11-04T14:45:37;100822.72;;;18.79;60.08
60319;BME280;46163;52.306;5.634;2022-11-04T14:48:12;100830.53;;;18.80;60.07
60319;BME280;46163;52.306;5.634;2022-11-04T14:50:42;100825.16;;;18.80;60.07
60319;BME280;46163;52.306;5.634;2022-11-04T14:53:16;100830.28;;;18.82;59.90
60319;BME280;46163;52.306;5.634;2022-11-04T14:55:45;100837.56;;;18.81;60.12
60319;BME280;46163;52.306;5.634;2022-11-04T14:58:23;100838.88;;;18.79;60.09
60319;BME280;46163;52.306;5.634;2022-11-04T15:00:51;100841.03;;;18.77;60.15
60319;BME280;46163;52.306;5.634;2022-11-04T15:05:57;100859.38;;;18.80;60.11
60319;BME280;46163;52.306;5.634;2022-11-04T15:13:42;100863.16;;;18.79;59.97
60319;BME280;46163;52.306;5.634;2022-11-04T15:16:25;100868.81;;;18.77;60.26
60319;BME280;46163;52.306;5.634;2022-11-04T15:18:54;100872.53;;;18.76;60.13
60319;BME280;46163;52.306;5.634;2022-11-04T15:21:21;100876.06;;;18.77;60.10
60319;BME280;46163;52.306;5.634;2022-11-04T15:23:54;100880.63;;;18.76;60.08
60319;BME280;46163;52.306;5.634;2022-11-04T15:26:25;100885.47;;;18.74;60.13
60319;BME280;46163;52.306;5.634;2022-11-04T15:28:52;100884.66;;;18.74;60.29
60319;BME280;46163;52.306;5.634;2022-11-04T15:31:32;100890.56;;;18.71;60.18
60319;BME280;46163;52.306;5.634;2022-11-04T15:33:59;100899.72;;;18.70;60.50
60319;BME280;46163;52.306;5.634;2022-11-04T15:36:29;100893.75;;;18.68;60.41